createdAt,value
2019-01-06T11:35:00.376Z,5.24
2019-01-06T11:39:59.631Z,8.61
2019-01-06T11:45:08.955Z,9.49
2019-01-06T11:50:16.764Z,5.97
2019-01-06T11:55:26.185Z,5.99
2019-01-06T12:00:36.946Z,6.11
2019-01-06T12:05:48.959Z,7.03
2019-01-06T12:10:45.535Z,8.71
2019-01-06T12:15:45.273Z,9.14
2019-01-06T12:20:55.535Z,8.10
2019-01-06T12:25:55.873Z,6.77
2019-01-06T12:31:07.560Z,5.99
2019-01-06T12:35:57.925Z,6.28
2019-01-06T12:40:57.451Z,5.67
2019-01-06T12:46:06.761Z,6.84
2019-01-06T12:51:16.305Z,6.49
2019-01-06T12:56:25.725Z,6.67
2019-01-06T13:01:35.072Z,5.85
2019-01-06T13:06:44.376Z,6.41
2019-01-06T13:16:56.593Z,7.31
2019-01-06T13:22:06.032Z,7.41
2019-01-06T13:27:15.336Z,8.05
2019-01-06T13:32:23.280Z,7.67
2019-01-06T13:37:32.629Z,8.05
2019-01-06T13:42:42.017Z,7.05
2019-01-06T13:47:49.860Z,7.46
2019-01-06T13:52:59.391Z,7.30
2019-01-06T13:58:08.682Z,7.42
2019-01-06T14:03:18.069Z,7.24
2019-01-06T14:08:27.376Z,8.15
2019-01-06T14:13:36.788Z,8.61
2019-01-06T14:18:46.088Z,9.36
2019-01-06T14:23:55.475Z,11.40
2019-01-06T14:29:04.826Z,9.99
2019-01-06T14:34:12.781Z,12.09
2019-01-06T14:39:20.608Z,24.21
2019-01-06T14:44:30.083Z,19.27
2019-01-06T14:49:39.434Z,32.45
2019-01-06T14:54:48.837Z,26.34
2019-01-06T14:59:58.140Z,22.78
2019-01-06T15:05:07.511Z,15.61
2019-01-06T15:10:16.809Z,19.06
2019-01-06T15:15:26.232Z,16.21
2019-01-06T15:20:35.572Z,13.10
2019-01-06T15:25:44.908Z,15.78
2019-01-06T15:30:54.232Z,13.03
2019-01-06T15:36:15.407Z,13.69
2019-01-06T15:41:03.265Z,14.24
2019-01-06T15:46:11.128Z,17.47
